Time;durP1;ratioP1;P1;durP2;ratioP2;P2;SDS_P1;SDS_P2;PMS_P1;PMS_P2;Temp;Humidity;BMP_temperature;BMP_pressure;BME280_temperature;BME280_humidity;BME280_pressure;Samples;Min_cycle;Max_cycle;Signal;HPM_P1;HPM_P2
2023/09/27 00:00:10;;;;;;;3.25;2.95;;;14.70;91.90;;;;;;5036276;28;20170;-63
2023/09/27 00:02:38;;;;;;;2.70;2.50;;;14.70;91.50;;;;;;5035860;28;20033;-63
2023/09/27 00:05:06;;;;;;;3.53;2.88;;;14.80;91.10;;;;;;5035869;28;20077;-63
2023/09/27 00:07:36;;;;;;;3.55;2.63;;;14.80;91.00;;;;;;5036061;28;20090;-63
2023/09/27 00:10:02;;;;;;;2.85;2.65;;;14.80;91.00;;;;;;5035760;28;20041;-63
2023/09/27 00:12:28;;;;;;;3.30;3.00;;;14.70;90.90;;;;;;5018056;28;20045;-63
2023/09/27 00:14:55;;;;;;;3.50;2.80;;;14.80;90.60;;;;;;5035936;28;20045;-63
2023/09/27 00:17:22;;;;;;;2.30;2.10;;;14.70;90.40;;;;;;5035538;28;20510;-63
2023/09/27 00:19:47;;;;;;;3.17;2.88;;;14.80;90.30;;;;;;5035847;28;20068;-62
2023/09/27 00:22:13;;;;;;;3.17;2.97;;;14.80;89.60;;;;;;5035896;28;20037;-62
2023/09/27 00:24:39;;;;;;;2.67;2.47;;;14.80;88.70;;;;;;5034933;28;20033;-64
2023/09/27 00:27:05;;;;;;;2.80;2.60;;;14.80;87.90;;;;;;5035714;28;20428;-62
2023/09/27 00:29:31;;;;;;;3.10;2.90;;;14.90;86.80;;;;;;5035728;28;20040;-62
2023/09/27 00:31:57;;;;;;;3.08;2.85;;;14.90;85.20;;;;;;5035698;28;20132;-62
2023/09/27 00:34:22;;;;;;;3.00;2.70;;;14.90;84.30;;;;;;5035651;28;20081;-65
2023/09/27 00:36:49;;;;;;;3.50;3.20;;;15.00;83.20;;;;;;5035310;28;20096;-62
2023/09/27 00:39:14;;;;;;;3.83;2.90;;;15.00;81.50;;;;;;5035430;28;20409;-62
2023/09/27 00:41:40;;;;;;;2.95;2.72;;;15.10;79.80;;;;;;5017555;28;20042;-62
2023/09/27 00:44:05;;;;;;;2.97;2.78;;;15.10;78.00;;;;;;5035339;28;20025;-62
2023/09/27 00:46:32;;;;;;;2.67;2.45;;;15.10;75.80;;;;;;5035387;28;20119;-62
2023/09/27 00:48:58;;;;;;;2.78;2.58;;;15.50;76.00;;;;;;5035331;28;20044;-62
2023/09/27 00:51:25;;;;;;;3.70;3.00;;;15.20;74.40;;;;;;5035355;28;20056;-62
2023/09/27 00:53:51;;;;;;;2.85;2.65;;;15.10;73.40;;;;;;5035282;28;20420;-62
2023/09/27 00:56:16;;;;;;;2.72;2.53;;;15.10;73.20;;;;;;5034926;28;20045;-62
2023/09/27 00:58:43;;;;;;;3.15;2.72;;;15.10;73.20;;;;;;5034860;28;20171;-62
2023/09/27 01:01:09;;;;;;;2.90;2.70;;;15.10;74.70;;;;;;5035099;28;20034;-62
2023/09/27 01:03:35;;;;;;;2.80;2.60;;;15.00;73.60;;;;;;5035067;28;20124;-62
2023/09/27 01:06:00;;;;;;;2.80;2.60;;;15.00;73.50;;;;;;5035025;28;20148;-62
2023/09/27 01:08:26;;;;;;;2.95;2.70;;;15.00;74.10;;;;;;5034710;28;20477;-62
2023/09/27 01:10:51;;;;;;;3.03;2.78;;;15.00;74.70;;;;;;5034931;28;20083;-64
2023/09/27 01:13:18;;;;;;;2.95;2.75;;;15.00;75.40;;;;;;5034936;28;20037;-64
2023/09/27 01:15:44;;;;;;;3.50;3.20;;;15.00;76.20;;;;;;5034731;28;20034;-64
2023/09/27 01:18:09;;;;;;;2.70;2.50;;;14.90;76.90;;;;;;5034797;28;20099;-64
2023/09/27 01:20:35;;;;;;;2.92;2.72;;;14.90;76.30;;;;;;5034904;28;20481;-64
2023/09/27 01:23:07;;;;;;;2.75;2.55;;;14.90;76.70;;;;;;5034845;28;20039;-63
2023/09/27 01:25:34;;;;;;;3.25;2.83;;;14.90;76.80;;;;;;5034493;28;20091;-63
2023/09/27 01:28:05;;;;;;;2.88;2.67;;;15.00;77.30;;;;;;5034772;28;20034;-63
2023/09/27 01:30:34;;;;;;;3.35;3.05;;;14.80;77.70;;;;;;5034621;28;20120;-64
2023/09/27 01:33:00;;;;;;;2.80;2.60;;;15.30;79.20;;;;;;5034360;28;20044;-64
2023/09/27 01:35:26;;;;;;;3.30;3.10;;;14.80;78.60;;;;;;5034289;28;20052;-64
2023/09/27 01:37:52;;;;;;;3.10;2.90;;;14.80;79.50;;;;;;5016581;28;20041;-63
2023/09/27 01:40:18;;;;;;;2.92;2.72;;;14.80;78.80;;;;;;5034395;28;20069;-64
2023/09/27 01:42:44;;;;;;;2.35;2.15;;;14.80;80.10;;;;;;5034467;28;20045;-64
2023/09/27 01:45:13;;;;;;;3.17;2.90;;;14.80;80.50;;;;;;5034410;28;20038;-65
2023/09/27 01:47:39;;;;;;;3.13;2.83;;;14.80;80.50;;;;;;5034272;28;20073;-64
2023/09/27 01:50:07;;;;;;;2.83;2.63;;;14.80;80.70;;;;;;5016277;28;20127;-64
2023/09/27 01:52:33;;;;;;;3.42;3.13;;;14.70;81.90;;;;;;5034027;28;20037;-64
2023/09/27 01:54:59;;;;;;;3.92;2.70;;;14.70;84.10;;;;;;5034223;28;20042;-64
2023/09/27 01:57:24;;;;;;;2.95;2.75;;;14.60;85.50;;;;;;5034183;28;20030;-64
2023/09/27 01:59:50;;;;;;;3.00;2.80;;;14.70;84.20;;;;;;5034054;28;20489;-63
2023/09/27 02:02:15;;;;;;;3.38;3.08;;;14.60;85.80;;;;;;5033713;28;20128;-63
2023/09/27 02:04:41;;;;;;;2.95;2.72;;;14.60;86.40;;;;;;5034054;28;20083;-63
2023/09/27 02:07:07;;;;;;;2.63;2.42;;;14.50;88.40;;;;;;5033954;28;20033;-64
2023/09/27 02:09:32;;;;;;;2.78;2.58;;;14.90;90.50;;;;;;5033998;28;20045;-64
2023/09/27 02:11:58;;;;;;;2.92;2.72;;;14.50;90.20;;;;;;5033872;28;20583;-64
2023/09/27 02:14:24;;;;;;;2.60;2.40;;;14.50;90.70;;;;;;5033865;28;20069;-64
2023/09/27 02:16:49;;;;;;;2.88;2.67;;;14.40;90.40;;;;;;5033571;28;20056;-64
2023/09/27 02:19:15;;;;;;;3.38;3.08;;;14.50;90.40;;;;;;5033721;28;20555;-64
2023/09/27 02:21:40;;;;;;;2.85;2.65;;;14.40;90.60;;;;;;5016240;28;20041;-66
2023/09/27 02:24:07;;;;;;;2.90;2.70;;;14.40;90.60;;;;;;5033706;28;20069;-66
2023/09/27 02:26:33;;;;;;;2.83;2.63;;;14.40;90.80;;;;;;5033650;28;20041;-66
2023/09/27 02:29:00;;;;;;;2.85;2.55;;;14.40;91.10;;;;;;5033641;28;20132;-67
2023/09/27 02:31:25;;;;;;;2.95;2.75;;;14.40;92.20;;;;;;5033595;28;20417;-66
2023/09/27 02:33:51;;;;;;;3.25;2.70;;;14.30;92.50;;;;;;5033519;28;20043;-66
2023/09/27 02:36:17;;;;;;;3.20;2.90;;;14.40;93.30;;;;;;5033497;28;20469;-66
2023/09/27 02:38:43;;;;;;;2.92;2.60;;;14.30;92.80;;;;;;5033393;28;20041;-66
2023/09/27 02:41:08;;;;;;;3.40;3.10;;;14.30;93.50;;;;;;5033507;28;20033;-62
2023/09/27 02:43:34;;;;;;;2.70;2.50;;;14.20;94.90;;;;;;5033124;28;20073;-61
2023/09/27 02:46:00;;;;;;;3.03;2.83;;;14.20;95.40;;;;;;5033156;28;20029;-62
2023/09/27 02:48:26;;;;;;;2.58;2.38;;;14.20;95.40;;;;;;5032878;28;20041;-62
2023/09/27 02:50:55;;;;;;;4.00;3.58;;;14.20;95.30;;;;;;5033325;28;20056;-66
2023/09/27 02:53:21;;;;;;;3.22;2.72;;;14.20;96.10;;;;;;5015211;28;20045;-63
2023/09/27 02:55:47;;;;;;;3.85;3.55;;;14.20;96.80;;;;;;5033239;28;20448;-63
2023/09/27 02:58:12;;;;;;;4.40;3.47;;;14.20;97.70;;;;;;5033107;28;20116;-63
2023/09/27 03:00:38;;;;;;;3.28;2.97;;;14.20;98.00;;;;;;5033192;28;20037;-63
2023/09/27 03:03:07;;;;;;;3.25;2.95;;;14.20;98.00;;;;;;5033231;28;20371;-64
2023/09/27 03:05:35;;;;;;;3.10;2.90;;;14.20;97.80;;;;;;5033108;28;20099;-64
2023/09/27 03:08:01;;;;;;;3.45;3.15;;;14.20;98.30;;;;;;5015027;28;20076;-64
2023/09/27 03:10:27;;;;;;;3.63;3.33;;;14.20;98.30;;;;;;5032792;28;20048;-64
2023/09/27 03:12:54;;;;;;;3.47;3.13;;;14.20;98.40;;;;;;5033081;28;20485;-64
2023/09/27 03:15:20;;;;;;;3.67;3.38;;;14.20;98.70;;;;;;5032979;28;20037;-64
2023/09/27 03:17:47;;;;;;;3.45;3.25;;;14.20;98.70;;;;;;5032624;28;20072;-63
2023/09/27 03:20:16;;;;;;;3.70;3.40;;;14.10;98.60;;;;;;5032846;28;20108;-64
2023/09/27 03:22:48;;;;;;;3.42;3.17;;;14.10;98.90;;;;;;5032956;28;20037;-64
2023/09/27 03:25:17;;;;;;;3.75;3.45;;;14.10;99.10;;;;;;5032769;28;20088;-64
2023/09/27 03:27:42;;;;;;;3.55;3.30;;;14.10;99.50;;;;;;5032908;28;20032;-64
2023/09/27 03:30:09;;;;;;;3.72;3.42;;;14.70;99.70;;;;;;5032899;28;20045;-64
2023/09/27 03:32:34;;;;;;;4.03;3.72;;;14.10;99.50;;;;;;5032678;28;20081;-62
2023/09/27 03:35:00;;;;;;;3.55;3.25;;;14.10;99.70;;;;;;5032561;28;20085;-62
2023/09/27 03:37:26;;;;;;;4.10;3.80;;;14.10;99.90;;;;;;5032805;28;20049;-62
2023/09/27 03:39:52;;;;;;;3.90;3.60;;;14.10;99.90;;;;;;5032657;28;20125;-62
2023/09/27 03:42:22;;;;;;;4.35;3.95;;;14.00;99.90;;;;;;5032456;28;20064;-62
2023/09/27 03:44:48;;;;;;;3.70;3.40;;;14.00;99.90;;;;;;5032770;28;20132;-61
2023/09/27 03:47:15;;;;;;;3.75;3.42;;;14.00;99.90;;;;;;5032413;28;20087;-62
2023/09/27 03:49:41;;;;;;;3.60;3.30;;;14.00;99.90;;;;;;5032750;28;20092;-62
2023/09/27 03:52:09;;;;;;;4.35;4.05;;;14.00;99.90;;;;;;5032637;28;20065;-61
2023/09/27 03:54:35;;;;;;;3.35;3.15;;;13.90;99.90;;;;;;5032626;28;20041;-61
2023/09/27 03:57:01;;;;;;;3.83;3.53;;;13.90;99.90;;;;;;5032628;28;20046;-62
2023/09/27 03:59:26;;;;;;;4.10;3.80;;;13.90;99.90;;;;;;5032206;28;20050;-61
2023/09/27 04:01:52;;;;;;;4.10;3.80;;;13.80;99.90;;;;;;5036288;28;20045;-62
2023/09/27 04:04:18;;;;;;;4.25;3.88;;;13.80;99.90;;;;;;5036348;28;20068;-62
2023/09/27 04:06:44;;;;;;;3.88;3.58;;;13.80;99.90;;;;;;5035973;28;20041;-62
2023/09/27 04:09:10;;;;;;;4.30;4.00;;;13.80;99.90;;;;;;5035957;28;20057;-62
2023/09/27 04:11:36;;;;;;;4.35;4.03;;;13.70;99.90;;;;;;5036288;28;20503;-67
2023/09/27 04:14:03;;;;;;;3.70;3.40;;;13.70;99.90;;;;;;5035872;28;20037;-67
2023/09/27 04:16:30;;;;;;;4.13;3.83;;;14.10;99.90;;;;;;5035900;28;20060;-67
2023/09/27 04:18:57;;;;;;;3.85;3.55;;;14.10;99.90;;;;;;5035689;28;20045;-67
2023/09/27 04:21:23;;;;;;;4.25;3.95;;;13.70;99.90;;;;;;5036044;28;20481;-68
2023/09/27 04:23:56;;;;;;;4.30;4.00;;;13.70;99.90;;;;;;5035571;28;20033;-66
2023/09/27 04:26:23;;;;;;;3.53;3.22;;;13.60;99.90;;;;;;5035583;28;20045;-67
2023/09/27 04:28:50;;;;;;;3.97;3.58;;;13.60;99.90;;;;;;5035881;28;20041;-66
2023/09/27 04:31:16;;;;;;;4.07;3.78;;;13.60;99.90;;;;;;5035751;28;20080;-66
2023/09/27 04:33:44;;;;;;;3.97;3.67;;;13.60;99.90;;;;;;5017966;28;20041;-66
2023/09/27 04:36:15;;;;;;;4.07;3.70;;;13.60;99.90;;;;;;5035499;28;20037;-68
2023/09/27 04:38:45;;;;;;;4.35;4.05;;;13.50;99.90;;;;;;5035595;28;20041;-66
2023/09/27 04:41:14;;;;;;;4.50;4.13;;;13.50;99.90;;;;;;5035738;28;20087;-65
2023/09/27 04:43:41;;;;;;;4.13;3.80;;;13.50;99.90;;;;;;5035613;28;20064;-66
2023/09/27 04:46:07;;;;;;;4.25;3.95;;;13.50;99.90;;;;;;5017644;28;20048;-66
2023/09/27 04:48:33;;;;;;;4.63;4.22;;;13.60;99.90;;;;;;5017429;28;20038;-66
2023/09/27 04:50:59;;;;;;;3.92;3.63;;;13.50;99.90;;;;;;5035459;28;20045;-66
2023/09/27 04:53:25;;;;;;;4.47;4.18;;;13.50;99.90;;;;;;5035157;28;20038;-66
2023/09/27 04:55:52;;;;;;;4.50;4.18;;;13.50;99.90;;;;;;5017623;28;20390;-66
2023/09/27 04:58:18;;;;;;;4.25;3.95;;;13.60;99.90;;;;;;5034860;28;20042;-66
2023/09/27 05:00:43;;;;;;;4.93;4.55;;;13.60;99.90;;;;;;5035325;28;20026;-67
2023/09/27 05:03:09;;;;;;;4.30;3.95;;;13.60;99.90;;;;;;5017134;28;20037;-66
2023/09/27 05:05:34;;;;;;;4.43;4.10;;;13.70;99.90;;;;;;5034793;28;20441;-66
2023/09/27 05:08:00;;;;;;;4.75;4.35;;;13.70;99.90;;;;;;5035136;28;20033;-66
2023/09/27 05:10:26;;;;;;;4.95;4.57;;;13.60;99.90;;;;;;5034820;28;20033;-66
2023/09/27 05:12:52;;;;;;;4.40;4.10;;;13.70;99.90;;;;;;5035031;28;20100;-66
2023/09/27 05:15:18;;;;;;;4.65;4.35;;;13.70;99.90;;;;;;5034718;28;20037;-67
2023/09/27 05:17:43;;;;;;;4.95;4.55;;;13.70;99.90;;;;;;5034573;28;20132;-65
2023/09/27 05:20:13;;;;;;;4.40;4.10;;;14.20;99.90;;;;;;5034781;28;20041;-66
2023/09/27 05:22:39;;;;;;;5.03;4.53;;;13.70;99.90;;;;;;5034948;28;20041;-66
2023/09/27 05:25:07;;;;;;;4.32;3.92;;;13.70;99.90;;;;;;5034787;28;20049;-66
2023/09/27 05:27:34;;;;;;;5.05;4.65;;;13.70;99.90;;;;;;5034439;28;20068;-66
2023/09/27 05:30:00;;;;;;;4.50;4.10;;;14.30;99.90;;;;;;5034785;28;20401;-67
2023/09/27 05:32:27;;;;;;;5.20;4.80;;;14.30;99.90;;;;;;5016571;28;20056;-66
2023/09/27 05:34:53;;;;;;;4.07;3.78;;;13.80;99.90;;;;;;5034579;28;20041;-70
2023/09/27 05:37:18;;;;;;;4.10;3.80;;;13.80;99.90;;;;;;5034555;28;20543;-70
2023/09/27 05:39:44;;;;;;;4.32;4.03;;;13.80;99.90;;;;;;5016443;28;20049;-67
2023/09/27 05:42:10;;;;;;;4.55;4.15;;;13.90;99.90;;;;;;5034463;28;20048;-67
2023/09/27 05:44:35;;;;;;;4.40;4.10;;;14.00;99.90;;;;;;5034405;28;20041;-66
2023/09/27 05:47:01;;;;;;;4.10;3.80;;;14.00;99.90;;;;;;5034347;28;20037;-66
2023/09/27 05:49:26;;;;;;;4.90;4.50;;;14.00;99.90;;;;;;5016619;28;20055;-67
2023/09/27 05:51:52;;;;;;;3.92;3.63;;;14.10;99.90;;;;;;5034453;28;20091;-61
2023/09/27 05:54:21;;;;;;;3.97;3.67;;;14.10;99.90;;;;;;5034185;28;20034;-61
2023/09/27 05:56:51;;;;;;;4.55;4.15;;;14.10;99.90;;;;;;5034294;28;20041;-61
2023/09/27 05:59:17;;;;;;;4.20;3.87;;;14.20;99.90;;;;;;5034045;28;20481;-61
2023/09/27 06:01:43;;;;;;;4.70;4.30;;;14.20;99.90;;;;;;5034114;28;20136;-62
2023/09/27 06:04:10;;;;;;;4.00;3.70;;;14.30;99.90;;;;;;5033777;28;20043;-68
2023/09/27 06:06:36;;;;;;;4.90;4.50;;;14.30;99.90;;;;;;5016373;28;20058;-68
2023/09/27 06:09:05;;;;;;;4.47;4.07;;;14.20;99.90;;;;;;5033989;28;20041;-66
2023/09/27 06:11:32;;;;;;;4.53;4.13;;;14.30;99.90;;;;;;5033844;28;20136;-68
2023/09/27 06:13:58;;;;;;;4.10;3.75;;;14.30;99.90;;;;;;5033894;28;20041;-67
2023/09/27 06:16:24;;;;;;;4.78;4.43;;;14.30;99.90;;;;;;5015932;28;20132;-67
2023/09/27 06:18:50;;;;;;;4.07;3.67;;;14.30;99.90;;;;;;5033625;28;20049;-69
2023/09/27 06:21:15;;;;;;;4.47;4.18;;;14.30;99.90;;;;;;5033419;28;20037;-67
2023/09/27 06:23:42;;;;;;;4.30;3.95;;;14.40;99.90;;;;;;5033040;28;20033;-68
2023/09/27 06:26:08;;;;;;;4.75;4.43;;;14.40;99.90;;;;;;5033704;28;20401;-67
2023/09/27 06:28:37;;;;;;;3.67;3.38;;;14.40;99.90;;;;;;5033362;28;20041;-68
2023/09/27 06:31:06;;;;;;;4.60;3.55;;;14.40;99.90;;;;;;5033213;28;20041;-69
2023/09/27 06:33:34;;;;;;;3.95;3.65;;;14.40;99.90;;;;;;5033712;28;20115;-69
2023/09/27 06:36:00;;;;;;;4.30;3.90;;;14.40;99.90;;;;;;5033608;28;20155;-67
2023/09/27 06:38:26;;;;;;;4.43;3.78;;;14.40;99.90;;;;;;5033404;28;20556;-66
2023/09/27 06:40:51;;;;;;;4.20;3.90;;;14.40;99.90;;;;;;5033427;28;20490;-66
2023/09/27 06:43:17;;;;;;;4.28;3.97;;;14.40;99.90;;;;;;5033430;28;20390;-65
2023/09/27 06:45:43;;;;;;;3.53;3.22;;;14.50;99.90;;;;;;5033354;28;20041;-66
2023/09/27 06:48:09;;;;;;;4.13;3.83;;;14.50;99.90;;;;;;5033299;28;20051;-66
2023/09/27 06:50:35;;;;;;;4.47;4.18;;;14.50;99.90;;;;;;5033305;28;20371;-66
2023/09/27 06:53:00;;;;;;;3.90;3.60;;;14.40;99.90;;;;;;5033054;28;20029;-66
2023/09/27 06:55:26;;;;;;;4.32;4.03;;;14.50;99.90;;;;;;5033224;28;20041;-67
2023/09/27 06:57:52;;;;;;;3.83;3.53;;;14.60;99.90;;;;;;5033229;28;20115;-66
2023/09/27 07:00:19;;;;;;;3.97;3.67;;;14.90;99.90;;;;;;5033128;28;20073;-66
2023/09/27 07:03:02;;;;;;;4.28;3.97;;;14.70;99.90;;;;;;5033195;28;20099;-67
2023/09/27 07:05:28;;;;;;;4.35;3.95;;;14.80;99.90;;;;;;5032989;28;20069;-66
2023/09/27 07:07:54;;;;;;;3.90;3.60;;;14.80;99.90;;;;;;5033070;28;20493;-66
2023/09/27 07:10:20;;;;;;;4.05;3.65;;;15.00;99.90;;;;;;5033020;28;20390;-66
2023/09/27 07:12:46;;;;;;;4.30;3.95;;;15.10;99.90;;;;;;5033124;28;20045;-61
2023/09/27 07:15:13;;;;;;;4.50;4.13;;;15.10;99.90;;;;;;5033063;28;20116;-68
2023/09/27 07:17:40;;;;;;;4.10;3.80;;;15.20;99.90;;;;;;5032584;28;20065;-61
2023/09/27 07:20:17;;;;;;;4.47;4.13;;;15.30;99.90;;;;;;5032850;28;20061;-61
2023/09/27 07:22:43;;;;;;;3.72;3.42;;;15.40;99.90;;;;;;5033009;28;20104;-61
2023/09/27 07:25:12;;;;;;;4.15;3.75;;;15.50;99.90;;;;;;5032893;28;20116;-61
2023/09/27 07:27:43;;;;;;;4.05;3.75;;;15.70;99.90;;;;;;5032727;28;20065;-61
2023/09/27 07:30:11;;;;;;;3.65;3.35;;;15.80;99.90;;;;;;5032848;28;20394;-61
2023/09/27 07:32:39;;;;;;;4.00;3.70;;;15.70;99.90;;;;;;5032819;28;20041;-61
2023/09/27 07:35:10;;;;;;;4.18;3.78;;;15.80;99.90;;;;;;5035211;28;20041;-61
2023/09/27 07:37:39;;;;;;;;;;;15.80;99.90;;;;;;5037298;28;20037;-61
2023/09/27 07:40:10;;;;;;;4.20;3.90;;;15.80;99.90;;;;;;5036393;28;19920;-61
2023/09/27 07:42:43;;;;;;;3.97;3.58;;;15.80;99.90;;;;;;5019002;28;20045;-67
2023/09/27 07:45:21;;;;;;;3.88;3.58;;;15.80;99.90;;;;;;5036326;28;20042;-66
2023/09/27 07:47:48;;;;;;;3.88;3.58;;;15.80;99.90;;;;;;5036581;28;20041;-67
2023/09/27 07:50:15;;;;;;;4.03;3.72;;;15.80;99.90;;;;;;5036271;28;20099;-67
2023/09/27 07:52:41;;;;;;;4.10;3.70;;;15.80;99.90;;;;;;5036536;28;20412;-66
2023/09/27 07:55:09;;;;;;;3.95;3.65;;;15.80;99.90;;;;;;5036372;28;20073;-66
2023/09/27 07:57:36;;;;;;;4.03;3.72;;;15.80;99.90;;;;;;5036409;28;20049;-66
2023/09/27 08:00:08;;;;;;;3.75;3.45;;;15.80;99.90;;;;;;5036292;28;20097;-68
2023/09/27 08:02:34;;;;;;;4.10;3.80;;;15.80;99.90;;;;;;5036177;28;20124;-66
2023/09/27 08:05:02;;;;;;;4.60;4.20;;;15.80;99.90;;;;;;5036003;28;20540;-66
2023/09/27 08:07:28;;;;;;;3.85;3.55;;;15.80;99.90;;;;;;5035950;28;20087;-67
2023/09/27 08:09:54;;;;;;;3.88;3.58;;;15.90;99.90;;;;;;5035939;28;20041;-66
2023/09/27 08:12:20;;;;;;;3.80;3.50;;;15.90;99.90;;;;;;5036198;28;20048;-68
2023/09/27 08:14:46;;;;;;;4.05;3.75;;;16.30;99.90;;;;;;5036156;28;20045;-68
2023/09/27 08:17:11;;;;;;;3.65;3.35;;;16.00;99.90;;;;;;5035776;28;20053;-66
2023/09/27 08:19:38;;;;;;;4.57;4.18;;;16.10;99.90;;;;;;5035991;28;20054;-66
2023/09/27 08:22:03;;;;;;;4.05;3.75;;;15.90;99.90;;;;;;5036083;28;20505;-62
2023/09/27 08:24:29;;;;;;;3.72;3.42;;;15.90;99.90;;;;;;5036033;28;20131;-61
2023/09/27 08:26:55;;;;;;;3.65;3.35;;;16.00;99.90;;;;;;5035963;28;20477;-62
2023/09/27 08:29:21;;;;;;;3.78;3.45;;;16.10;99.90;;;;;;5035886;28;20095;-61
2023/09/27 08:31:47;;;;;;;3.10;2.90;;;16.20;99.90;;;;;;5035816;28;20051;-61
2023/09/27 08:34:13;;;;;;;3.65;3.35;;;16.40;99.90;;;;;;5035777;28;20037;-62
2023/09/27 08:36:39;;;;;;;3.70;3.35;;;16.50;99.90;;;;;;5035773;28;20041;-62
2023/09/27 08:39:04;;;;;;;3.63;3.25;;;16.60;99.90;;;;;;5035674;28;20124;-62
2023/09/27 08:41:30;;;;;;;3.10;2.90;;;16.70;99.90;;;;;;5035686;28;20116;-62
2023/09/27 08:43:57;;;;;;;3.35;3.15;;;16.80;99.90;;;;;;5035645;28;20041;-62
2023/09/27 08:46:24;;;;;;;3.10;2.85;;;17.00;97.10;;;;;;5016810;28;20041;-61
2023/09/27 08:48:51;;;;;;;3.13;2.92;;;17.00;94.60;;;;;;5035568;28;20041;-61
2023/09/27 08:51:17;;;;;;;4.03;3.63;;;17.10;93.60;;;;;;5035473;28;20088;-62
2023/09/27 08:53:43;;;;;;;3.60;3.30;;;17.20;93.10;;;;;;5035561;28;20405;-63
2023/09/27 08:56:14;;;;;;;3.45;3.15;;;17.30;91.70;;;;;;5035323;28;20033;-63
2023/09/27 08:58:39;;;;;;;;;;;17.40;89.30;;;;;;5035582;28;20044;-63
2023/09/27 09:01:08;;;;;;;3.67;3.38;;;17.50;90.30;;;;;;5035223;28;19921;-63
2023/09/27 09:03:36;;;;;;;4.00;3.50;;;17.50;85.10;;;;;;5035268;28;20091;-63
2023/09/27 09:06:07;;;;;;;3.30;3.00;;;17.60;84.50;;;;;;5034894;28;20091;-63
2023/09/27 09:08:39;;;;;;;3.67;3.33;;;17.60;81.90;;;;;;5034934;28;20045;-63
2023/09/27 09:11:06;;;;;;;4.18;3.78;;;17.70;75.50;;;;;;5017304;28;20049;-63
2023/09/27 09:14:03;;;;;;;3.72;3.42;;;17.70;73.30;;;;;;5035108;28;20138;-63
2023/09/27 09:16:39;;;;;;;3.00;2.78;;;17.80;72.50;;;;;;5034655;28;20063;-63
2023/09/27 09:19:25;;;;;;;3.25;2.95;;;17.80;74.10;;;;;;5034991;28;20045;-63
2023/09/27 09:22:11;;;;;;;3.70;3.40;;;17.90;69.00;;;;;;5034571;28;20052;-63
2023/09/27 09:24:41;;;;;;;3.30;3.00;;;18.00;67.20;;;;;;5034555;28;20113;-63
2023/09/27 09:27:08;;;;;;;;;;;18.10;63.20;;;;;;5034919;28;20124;-64
2023/09/27 09:29:43;;;;;;;4.00;3.28;;;18.40;62.60;;;;;;5034782;28;19924;-63
2023/09/27 09:32:08;;;;;;;3.42;3.13;;;18.40;58.10;;;;;;5016704;28;20084;-63
2023/09/27 09:34:44;;;;;;;3.17;2.88;;;18.50;47.50;;;;;;5034304;28;20095;-64
2023/09/27 09:37:16;;;;;;;2.60;2.40;;;18.50;47.30;;;;;;5034475;28;20505;-65
2023/09/27 09:39:42;;;;;;;2.85;2.45;;;18.50;30.90;;;;;;5016390;28;20045;-63
2023/09/27 09:42:08;;;;;;;3.25;2.60;;;18.40;24.50;;;;;;5034519;28;20385;-63
2023/09/27 09:44:34;;;;;;;2.13;1.98;;;18.50;25.10;;;;;;5034466;28;20037;-64
2023/09/27 09:47:11;;;;;;;2.22;2.03;;;18.60;29.50;;;;;;5034424;28;20041;-64
2023/09/27 09:49:38;;;;;;;2.20;2.03;;;18.60;49.20;;;;;;5016580;28;20080;-63
2023/09/27 09:52:04;;;;;;;2.42;2.22;;;18.70;51.60;;;;;;5034317;28;20120;-64
2023/09/27 09:54:46;;;;;;;1.98;1.85;;;19.10;40.90;;;;;;5034223;28;20048;-63
2023/09/27 09:57:13;;;;;;;2.85;2.65;;;18.90;33.80;;;;;;5033492;28;20118;-63
2023/09/27 10:00:18;;;;;;;2.38;2.00;;;19.00;34.70;;;;;;5033792;28;20405;-63
2023/09/27 10:02:52;;;;;;;3.30;2.53;;;19.10;27.50;;;;;;5033936;28;20037;-62
2023/09/27 10:05:19;;;;;;;2.35;2.15;;;19.10;24.50;;;;;;5033754;28;20034;-62
2023/09/27 10:07:46;;;;;;;2.40;2.13;;;18.90;19.70;;;;;;5034034;28;20075;-62
2023/09/27 10:10:14;;;;;;;2.08;1.88;;;19.20;18.40;;;;;;5034247;28;20397;-62
2023/09/27 10:12:42;;;;;;;2.75;2.55;;;19.30;14.30;;;;;;5033728;28;20041;-62
2023/09/27 10:15:08;;;;;;;3.13;2.85;;;19.50;15.00;;;;;;5033869;28;20037;-62
2023/09/27 10:17:34;;;;;;;3.03;2.72;;;19.60;8.10;;;;;;5033423;28;20068;-62
2023/09/27 10:20:12;;;;;;;3.28;2.97;;;19.70;10.80;;;;;;5033438;28;20060;-62
2023/09/27 10:22:39;;;;;;;2.72;2.53;;;19.80;1.00;;;;;;5033791;28;20074;-62
2023/09/27 10:25:30;;;;;;;3.47;2.70;;;20.00;1.00;;;;;;5033441;28;20045;-62
2023/09/27 10:28:01;;;;;;;3.20;2.40;;;19.70;1.00;;;;;;5033649;28;20083;-62
2023/09/27 10:30:45;;;;;;;2.63;2.42;;;19.70;1.00;;;;;;5033570;28;20054;-62
2023/09/27 10:33:16;;;;;;;2.88;2.67;;;19.80;1.00;;;;;;5033493;28;20042;-62
2023/09/27 10:35:44;;;;;;;3.38;2.70;;;20.20;1.00;;;;;;5033455;28;20045;-61
2023/09/27 10:38:10;;;;;;;3.33;2.42;;;20.10;1.00;;;;;;5033417;28;20383;-62
2023/09/27 10:40:46;;;;;;;3.13;2.90;;;20.20;1.00;;;;;;5032993;28;20048;-62
2023/09/27 10:43:40;;;;;;;3.10;2.90;;;20.10;1.00;;;;;;5033309;28;20057;-64
2023/09/27 10:46:07;;;;;;;2.90;2.60;;;20.40;1.00;;;;;;5033378;28;20049;-64
2023/09/27 10:48:33;;;;;;;3.50;3.20;;;20.80;1.00;;;;;;5033004;28;20041;-64
2023/09/27 10:50:59;;;;;;;3.55;3.25;;;20.30;1.00;;;;;;5033377;28;20458;-64
2023/09/27 10:53:26;;;;;;;3.50;3.20;;;20.40;1.00;;;;;;5033283;28;20395;-64
2023/09/27 10:55:52;;;;;;;3.13;2.92;;;20.80;1.00;;;;;;5033244;28;20503;-63
2023/09/27 10:58:18;;;;;;;3.33;3.03;;;20.20;1.00;;;;;;5033114;28;20116;-63
2023/09/27 11:01:04;;;;;;;3.50;3.25;;;21.00;1.00;;;;;;5032801;28;20038;-66
2023/09/27 11:03:30;;;;;;;3.85;3.55;;;20.50;1.00;;;;;;5033116;28;20045;-63
2023/09/27 11:06:12;;;;;;;3.65;3.08;;;20.40;1.00;;;;;;5033065;28;20099;-64
2023/09/27 11:08:40;;;;;;;3.10;2.80;;;20.40;1.00;;;;;;5014707;28;20118;-64
2023/09/27 11:11:09;;;;;;;2.97;2.78;;;20.50;1.00;;;;;;5032735;28;20386;-63
2023/09/27 11:13:35;;;;;;;2.83;2.63;;;20.60;1.00;;;;;;5032770;28;20044;-64
2023/09/27 11:16:08;;;;;;;3.15;2.88;;;20.70;1.00;;;;;;5014841;28;20037;-64
2023/09/27 11:18:35;;;;;;;2.90;2.70;;;20.80;1.00;;;;;;5014893;28;20052;-64
2023/09/27 11:21:10;;;;;;;2.83;2.50;;;20.90;1.00;;;;;;5032609;28;20120;-64
2023/09/27 11:23:59;;;;;;;2.80;2.58;;;21.00;1.00;;;;;;5014953;28;20112;-64
2023/09/27 11:26:30;;;;;;;2.38;2.17;;;20.90;1.00;;;;;;5032817;28;20042;-64
2023/09/27 11:29:03;;;;;;;2.85;2.65;;;21.00;1.00;;;;;;5032824;28;20413;-64
2023/09/27 11:31:33;;;;;;;2.42;2.22;;;21.00;1.00;;;;;;5032765;28;20037;-64
2023/09/27 11:34:19;;;;;;;3.10;2.80;;;21.10;1.00;;;;;;5032530;28;20077;-63
2023/09/27 11:36:53;;;;;;;2.95;2.63;;;21.10;1.00;;;;;;5032806;28;20044;-64
2023/09/27 11:39:27;;;;;;;2.45;2.25;;;21.20;1.00;;;;;;5032356;28;20041;-64
2023/09/27 11:42:02;;;;;;;2.15;1.92;;;21.10;1.00;;;;;;5032765;28;20366;-64
2023/09/27 11:44:28;;;;;;;2.80;2.60;;;21.10;99.90;;;;;;5032619;28;20042;-64
2023/09/27 11:47:07;;;;;;;3.22;2.92;;;21.10;99.90;;;;;;5032742;28;20120;-63
2023/09/27 11:49:33;;;;;;;3.47;2.70;;;21.20;99.90;;;;;;5032698;28;20037;-64
2023/09/27 11:52:01;;;;;;;3.05;2.85;;;21.20;99.90;;;;;;5032796;28;20425;-66
2023/09/27 11:54:27;;;;;;;2.60;2.40;;;21.20;99.90;;;;;;5032661;28;20128;-66
2023/09/27 11:56:53;;;;;;;3.58;3.17;;;21.20;99.90;;;;;;5032571;28;20095;-66
2023/09/27 11:59:19;;;;;;;2.50;2.30;;;21.20;99.90;;;;;;5032476;28;20389;-67
2023/09/27 12:01:45;;;;;;;2.80;2.60;;;21.30;99.90;;;;;;5032533;28;20045;-66
2023/09/27 12:04:10;;;;;;;2.75;2.50;;;21.20;99.90;;;;;;5032508;28;20561;-65
2023/09/27 12:06:37;;;;;;;5.93;2.97;;;20.90;99.90;;;;;;5032232;28;20116;-65
2023/09/27 12:09:08;;;;;;;2.80;2.50;;;20.90;99.90;;;;;;5032145;28;20067;-65
2023/09/27 12:11:34;;;;;;;2.63;2.42;;;20.80;99.90;;;;;;5014792;28;20098;-65
2023/09/27 12:14:00;;;;;;;2.70;2.50;;;20.60;99.90;;;;;;5032090;28;20044;-66
2023/09/27 12:16:26;;;;;;;3.35;3.05;;;20.70;99.90;;;;;;5014290;28;20073;-66
2023/09/27 12:18:51;;;;;;;2.97;2.78;;;20.80;99.90;;;;;;5032342;28;20045;-66
2023/09/27 12:21:17;;;;;;;2.92;2.72;;;20.90;99.90;;;;;;5033538;28;20469;-66
2023/09/27 12:23:47;;;;;;;3.38;3.08;;;20.60;99.90;;;;;;5035733;28;20143;-62
2023/09/27 12:26:14;;;;;;;3.10;2.80;;;20.90;99.90;;;;;;5035909;28;20045;-62
2023/09/27 12:28:41;;;;;;;6.63;5.95;;;21.40;99.90;;;;;;5035549;28;20056;-62
2023/09/27 12:31:07;;;;;;;3.40;3.08;;;21.40;99.90;;;;;;5017808;28;20063;-62
2023/09/27 12:33:36;;;;;;;3.08;2.75;;;21.00;99.90;;;;;;5035840;28;20037;-63
2023/09/27 12:36:02;;;;;;;2.45;2.25;;;21.10;99.90;;;;;;5035763;28;20401;-62
2023/09/27 12:38:27;;;;;;;3.90;3.58;;;21.10;99.90;;;;;;5035312;28;20045;-63
2023/09/27 12:40:54;;;;;;;3.00;2.80;;;21.10;99.90;;;;;;5035437;28;20043;-65
2023/09/27 12:43:19;;;;;;;3.22;3.00;;;21.10;99.90;;;;;;5035588;28;20065;-63
2023/09/27 12:45:45;;;;;;;4.45;4.05;;;21.10;99.90;;;;;;5035628;28;20075;-63
2023/09/27 12:48:10;;;;;;;2.90;2.70;;;21.20;99.90;;;;;;5035491;28;20113;-62
2023/09/27 12:50:45;;;;;;;3.05;2.85;;;21.20;99.90;;;;;;5035456;28;20543;-63